sensor_id;sensor_type;location;lat;lon;timestamp;pressure;altitude;pressure_sealevel;temperature;humidity
73594;BME280;64760;53.404;23.498;2024-01-30T00:02:18;101288.72;;;5.60;61.46
73594;BME280;64760;53.404;23.498;2024-01-30T00:04:44;101286.59;;;5.43;61.78
73594;BME280;64760;53.404;23.498;2024-01-30T00:07:11;101288.34;;;5.33;62.12
73594;BME280;64760;53.404;23.498;2024-01-30T00:09:38;101282.97;;;5.44;61.92
73594;BME280;64760;53.404;23.498;2024-01-30T00:12:06;101285.75;;;5.74;61.60
73594;BME280;64760;53.404;23.498;2024-01-30T00:14:32;101278.88;;;5.40;61.96
73594;BME280;64760;53.404;23.498;2024-01-30T00:16:59;101287.19;;;5.46;62.17
73594;BME280;64760;53.404;23.498;2024-01-30T00:19:25;101289.78;;;5.26;63.21
73594;BME280;64760;53.404;23.498;2024-01-30T00:21:52;101285.66;;;5.33;62.82
73594;BME280;64760;53.404;23.498;2024-01-30T00:24:18;101276.47;;;5.37;62.99
73594;BME280;64760;53.404;23.498;2024-01-30T00:26:45;101279.97;;;5.37;63.15
73594;BME280;64760;53.404;23.498;2024-01-30T00:29:11;101271.13;;;5.48;62.86
73594;BME280;64760;53.404;23.498;2024-01-30T00:31:38;101276.66;;;5.56;63.03
73594;BME280;64760;53.404;23.498;2024-01-30T00:34:11;101275.38;;;5.71;61.73
73594;BME280;64760;53.404;23.498;2024-01-30T00:36:37;101278.25;;;5.79;61.45
73594;BME280;64760;53.404;23.498;2024-01-30T00:39:03;101274.03;;;5.77;61.29
73594;BME280;64760;53.404;23.498;2024-01-30T00:41:36;101275.06;;;5.64;62.92
73594;BME280;64760;53.404;23.498;2024-01-30T00:44:02;101276.59;;;5.67;62.99
73594;BME280;64760;53.404;23.498;2024-01-30T00:46:29;101276.16;;;5.83;62.17
73594;BME280;64760;53.404;23.498;2024-01-30T00:48:55;101273.03;;;5.89;61.49
73594;BME280;64760;53.404;23.498;2024-01-30T00:51:21;101263.88;;;5.71;62.71
73594;BME280;64760;53.404;23.498;2024-01-30T00:53:47;101272.91;;;5.79;62.73
73594;BME280;64760;53.404;23.498;2024-01-30T00:56:16;101265.41;;;5.84;62.52
73594;BME280;64760;53.404;23.498;2024-01-30T00:58:44;101257.88;;;5.89;62.68
73594;BME280;64760;53.404;23.498;2024-01-30T01:01:10;101252.09;;;5.84;62.62
73594;BME280;64760;53.404;23.498;2024-01-30T01:03:37;101248.94;;;5.90;62.70
73594;BME280;64760;53.404;23.498;2024-01-30T01:06:04;101251.09;;;5.85;62.52
73594;BME280;64760;53.404;23.498;2024-01-30T01:08:30;101252.56;;;5.89;62.67
73594;BME280;64760;53.404;23.498;2024-01-30T01:10:56;101251.38;;;5.82;62.44
73594;BME280;64760;53.404;23.498;2024-01-30T01:13:22;101242.84;;;5.99;62.40
73594;BME280;64760;53.404;23.498;2024-01-30T01:15:48;101244.97;;;6.26;61.47
73594;BME280;64760;53.404;23.498;2024-01-30T01:18:14;101243.81;;;6.19;61.41
73594;BME280;64760;53.404;23.498;2024-01-30T01:20:41;101245.22;;;6.23;61.52
73594;BME280;64760;53.404;23.498;2024-01-30T01:23:07;101243.44;;;6.03;61.97
73594;BME280;64760;53.404;23.498;2024-01-30T01:25:33;101247.91;;;6.02;62.34
73594;BME280;64760;53.404;23.498;2024-01-30T01:27:59;101241.53;;;6.14;61.79
73594;BME280;64760;53.404;23.498;2024-01-30T01:30:27;101238.00;;;6.35;61.28
73594;BME280;64760;53.404;23.498;2024-01-30T01:32:54;101237.13;;;6.25;61.35
73594;BME280;64760;53.404;23.498;2024-01-30T01:35:22;101233.13;;;6.40;61.72
73594;BME280;64760;53.404;23.498;2024-01-30T01:37:51;101241.91;;;6.61;60.86
73594;BME280;64760;53.404;23.498;2024-01-30T01:40:29;101236.75;;;6.69;60.74
73594;BME280;64760;53.404;23.498;2024-01-30T01:42:55;101232.94;;;6.62;60.50
73594;BME280;64760;53.404;23.498;2024-01-30T01:45:22;101236.56;;;6.61;60.24
73594;BME280;64760;53.404;23.498;2024-01-30T01:47:51;101228.09;;;6.77;60.34
73594;BME280;64760;53.404;23.498;2024-01-30T01:50:18;101227.72;;;6.51;60.77
73594;BME280;64760;53.404;23.498;2024-01-30T01:52:47;101226.06;;;6.59;60.97
73594;BME280;64760;53.404;23.498;2024-01-30T01:55:15;101215.53;;;6.58;60.47
73594;BME280;64760;53.404;23.498;2024-01-30T01:57:41;101220.41;;;6.53;60.43
73594;BME280;64760;53.404;23.498;2024-01-30T02:00:09;101222.44;;;6.70;60.22
73594;BME280;64760;53.404;23.498;2024-01-30T02:02:36;101218.06;;;7.09;59.26
73594;BME280;64760;53.404;23.498;2024-01-30T02:05:03;101210.66;;;6.63;59.70
73594;BME280;64760;53.404;23.498;2024-01-30T02:07:29;101205.16;;;6.55;59.65
73594;BME280;64760;53.404;23.498;2024-01-30T02:09:56;101205.63;;;6.70;59.57
73594;BME280;64760;53.404;23.498;2024-01-30T02:12:22;101204.19;;;6.56;59.64
73594;BME280;64760;53.404;23.498;2024-01-30T02:14:50;101190.72;;;6.57;60.39
73594;BME280;64760;53.404;23.498;2024-01-30T02:17:16;101180.88;;;6.48;60.77
73594;BME280;64760;53.404;23.498;2024-01-30T02:19:43;101184.75;;;6.35;61.18
73594;BME280;64760;53.404;23.498;2024-01-30T02:22:10;101179.75;;;6.51;60.69
73594;BME280;64760;53.404;23.498;2024-01-30T02:24:36;101184.34;;;6.39;60.85
73594;BME280;64760;53.404;23.498;2024-01-30T02:27:02;101179.25;;;6.27;61.55
73594;BME280;64760;53.404;23.498;2024-01-30T02:29:29;101185.53;;;6.56;60.05
73594;BME280;64760;53.404;23.498;2024-01-30T02:31:55;101177.50;;;6.46;60.43
73594;BME280;64760;53.404;23.498;2024-01-30T02:34:21;101190.25;;;6.43;60.70
73594;BME280;64760;53.404;23.498;2024-01-30T02:36:47;101183.94;;;6.44;59.85
73594;BME280;64760;53.404;23.498;2024-01-30T02:39:14;101194.06;;;6.50;59.92
73594;BME280;64760;53.404;23.498;2024-01-30T02:41:40;101181.00;;;6.47;59.74
73594;BME280;64760;53.404;23.498;2024-01-30T02:44:06;101188.47;;;6.23;60.76
73594;BME280;64760;53.404;23.498;2024-01-30T02:46:33;101184.69;;;6.25;61.19
73594;BME280;64760;53.404;23.498;2024-01-30T02:48:59;101176.34;;;6.39;60.35
73594;BME280;64760;53.404;23.498;2024-01-30T02:51:25;101182.56;;;6.49;59.42
73594;BME280;64760;53.404;23.498;2024-01-30T02:53:51;101178.44;;;6.36;59.63
73594;BME280;64760;53.404;23.498;2024-01-30T02:56:18;101176.13;;;6.22;60.59
73594;BME280;64760;53.404;23.498;2024-01-30T02:58:44;101166.25;;;6.03;61.34
73594;BME280;64760;53.404;23.498;2024-01-30T03:01:10;101172.50;;;5.92;62.01
73594;BME280;64760;53.404;23.498;2024-01-30T03:03:37;101170.75;;;6.33;60.28
73594;BME280;64760;53.404;23.498;2024-01-30T03:06:03;101175.22;;;6.32;60.36
73594;BME280;64760;53.404;23.498;2024-01-30T03:08:30;101178.72;;;6.33;59.97
73594;BME280;64760;53.404;23.498;2024-01-30T03:10:56;101173.06;;;5.96;61.57
73594;BME280;64760;53.404;23.498;2024-01-30T03:13:22;101170.63;;;6.13;61.61
73594;BME280;64760;53.404;23.498;2024-01-30T03:15:50;101173.41;;;6.82;59.61
73594;BME280;64760;53.404;23.498;2024-01-30T03:18:17;101159.19;;;6.23;60.25
73594;BME280;64760;53.404;23.498;2024-01-30T03:20:43;101172.00;;;6.38;59.85
73594;BME280;64760;53.404;23.498;2024-01-30T03:23:10;101164.56;;;6.32;59.81
73594;BME280;64760;53.404;23.498;2024-01-30T03:25:36;101163.50;;;6.14;60.64
73594;BME280;64760;53.404;23.498;2024-01-30T03:28:03;101154.34;;;6.07;61.26
73594;BME280;64760;53.404;23.498;2024-01-30T03:30:29;101162.28;;;5.97;61.53
73594;BME280;64760;53.404;23.498;2024-01-30T03:32:55;101153.00;;;6.12;61.22
73594;BME280;64760;53.404;23.498;2024-01-30T03:35:21;101162.03;;;6.31;60.82
73594;BME280;64760;53.404;23.498;2024-01-30T03:37:48;101160.91;;;6.33;60.48
73594;BME280;64760;53.404;23.498;2024-01-30T03:40:14;101167.28;;;6.21;61.11
73594;BME280;64760;53.404;23.498;2024-01-30T03:42:41;101166.53;;;6.09;61.13
73594;BME280;64760;53.404;23.498;2024-01-30T03:45:07;101170.97;;;6.20;60.91
73594;BME280;64760;53.404;23.498;2024-01-30T03:47:34;101170.88;;;6.01;62.13
73594;BME280;64760;53.404;23.498;2024-01-30T03:50:00;101172.28;;;5.84;62.17
73594;BME280;64760;53.404;23.498;2024-01-30T03:52:26;101173.50;;;5.80;62.98
73594;BME280;64760;53.404;23.498;2024-01-30T03:54:52;101171.28;;;5.85;63.08
73594;BME280;64760;53.404;23.498;2024-01-30T03:57:19;101175.84;;;5.94;63.06
73594;BME280;64760;53.404;23.498;2024-01-30T03:59:45;101163.78;;;5.90;62.79
73594;BME280;64760;53.404;23.498;2024-01-30T04:02:11;101167.91;;;6.25;61.26
73594;BME280;64760;53.404;23.498;2024-01-30T04:04:37;101162.38;;;6.47;60.53
73594;BME280;64760;53.404;23.498;2024-01-30T04:07:04;101161.97;;;6.21;60.90
73594;BME280;64760;53.404;23.498;2024-01-30T04:09:30;101153.13;;;6.11;61.59
73594;BME280;64760;53.404;23.498;2024-01-30T04:11:56;101156.25;;;6.26;61.07
73594;BME280;64760;53.404;23.498;2024-01-30T04:14:22;101150.63;;;6.19;61.89
73594;BME280;64760;53.404;23.498;2024-01-30T04:16:49;101142.69;;;6.29;61.48
73594;BME280;64760;53.404;23.498;2024-01-30T04:19:15;101148.88;;;6.39;60.58
73594;BME280;64760;53.404;23.498;2024-01-30T04:21:41;101149.22;;;6.55;59.46
73594;BME280;64760;53.404;23.498;2024-01-30T04:24:07;101153.53;;;6.46;59.74
73594;BME280;64760;53.404;23.498;2024-01-30T04:26:34;101152.72;;;6.65;59.38
73594;BME280;64760;53.404;23.498;2024-01-30T04:29:01;101151.47;;;6.69;59.21
73594;BME280;64760;53.404;23.498;2024-01-30T04:31:27;101145.03;;;6.62;59.11
73594;BME280;64760;53.404;23.498;2024-01-30T04:33:53;101137.56;;;6.46;59.36
73594;BME280;64760;53.404;23.498;2024-01-30T04:36:20;101141.00;;;6.28;60.54
73594;BME280;64760;53.404;23.498;2024-01-30T04:38:46;101133.63;;;6.41;59.93
73594;BME280;64760;53.404;23.498;2024-01-30T04:41:12;101136.97;;;6.43;60.35
73594;BME280;64760;53.404;23.498;2024-01-30T04:43:38;101136.53;;;6.28;60.29
73594;BME280;64760;53.404;23.498;2024-01-30T04:46:05;101127.97;;;6.34;60.45
73594;BME280;64760;53.404;23.498;2024-01-30T04:48:31;101135.41;;;6.31;60.13
73594;BME280;64760;53.404;23.498;2024-01-30T04:50:58;101122.00;;;6.51;60.11
73594;BME280;64760;53.404;23.498;2024-01-30T04:53:24;101123.97;;;6.49;59.50
73594;BME280;64760;53.404;23.498;2024-01-30T04:55:50;101127.84;;;6.36;60.61
73594;BME280;64760;53.404;23.498;2024-01-30T04:58:16;101128.88;;;6.54;59.64
73594;BME280;64760;53.404;23.498;2024-01-30T05:00:43;101129.91;;;6.23;60.95
73594;BME280;64760;53.404;23.498;2024-01-30T05:03:09;101134.75;;;6.48;59.90
73594;BME280;64760;53.404;23.498;2024-01-30T05:05:35;101134.31;;;6.43;60.44
73594;BME280;64760;53.404;23.498;2024-01-30T05:08:01;101138.63;;;6.34;60.49
73594;BME280;64760;53.404;23.498;2024-01-30T05:10:28;101139.47;;;6.35;60.46
73594;BME280;64760;53.404;23.498;2024-01-30T05:12:54;101146.28;;;6.58;60.00
73594;BME280;64760;53.404;23.498;2024-01-30T05:15:21;101144.84;;;6.44;61.18
73594;BME280;64760;53.404;23.498;2024-01-30T05:17:47;101140.13;;;6.67;59.75
73594;BME280;64760;53.404;23.498;2024-01-30T05:20:14;101134.88;;;6.46;60.21
73594;BME280;64760;53.404;23.498;2024-01-30T05:22:40;101130.25;;;6.39;60.52
73594;BME280;64760;53.404;23.498;2024-01-30T05:25:13;101135.50;;;6.59;61.01
73594;BME280;64760;53.404;23.498;2024-01-30T05:27:39;101124.38;;;6.45;60.29
73594;BME280;64760;53.404;23.498;2024-01-30T05:30:06;101129.66;;;6.35;60.91
73594;BME280;64760;53.404;23.498;2024-01-30T05:32:34;101120.84;;;6.35;61.16
73594;BME280;64760;53.404;23.498;2024-01-30T05:35:00;101120.34;;;6.60;59.67
73594;BME280;64760;53.404;23.498;2024-01-30T05:37:26;101119.63;;;6.58;59.11
73594;BME280;64760;53.404;23.498;2024-01-30T05:39:53;101112.22;;;6.71;58.59
73594;BME280;64760;53.404;23.498;2024-01-30T05:42:19;101120.31;;;6.41;59.30
73594;BME280;64760;53.404;23.498;2024-01-30T05:44:45;101126.16;;;6.35;59.62
73594;BME280;64760;53.404;23.498;2024-01-30T05:47:11;101116.03;;;6.19;60.21
73594;BME280;64760;53.404;23.498;2024-01-30T05:49:37;101129.69;;;5.84;62.47
73594;BME280;64760;53.404;23.498;2024-01-30T05:52:05;101131.69;;;6.12;61.55
73594;BME280;64760;53.404;23.498;2024-01-30T05:54:32;101134.66;;;6.19;62.05
73594;BME280;64760;53.404;23.498;2024-01-30T05:56:59;101131.44;;;6.16;61.39
73594;BME280;64760;53.404;23.498;2024-01-30T05:59:25;101129.22;;;6.30;60.88
73594;BME280;64760;53.404;23.498;2024-01-30T06:01:52;101122.59;;;6.15;61.23
73594;BME280;64760;53.404;23.498;2024-01-30T06:04:18;101116.63;;;6.32;60.53
73594;BME280;64760;53.404;23.498;2024-01-30T06:06:44;101118.56;;;6.21;60.65
73594;BME280;64760;53.404;23.498;2024-01-30T06:09:10;101120.16;;;6.02;61.59
73594;BME280;64760;53.404;23.498;2024-01-30T06:11:38;101125.34;;;6.44;60.18
73594;BME280;64760;53.404;23.498;2024-01-30T06:14:05;101128.44;;;6.49;59.92
73594;BME280;64760;53.404;23.498;2024-01-30T06:16:31;101121.97;;;6.32;60.46
73594;BME280;64760;53.404;23.498;2024-01-30T06:18:57;101132.25;;;6.56;60.02
73594;BME280;64760;53.404;23.498;2024-01-30T06:21:24;101124.41;;;6.54;60.14
73594;BME280;64760;53.404;23.498;2024-01-30T06:23:50;101116.84;;;6.59;59.46
73594;BME280;64760;53.404;23.498;2024-01-30T06:26:16;101126.22;;;6.54;59.06
73594;BME280;64760;53.404;23.498;2024-01-30T06:28:43;101122.84;;;6.52;59.59
73594;BME280;64760;53.404;23.498;2024-01-30T06:31:10;101121.19;;;6.70;59.50
73594;BME280;64760;53.404;23.498;2024-01-30T06:33:36;101112.72;;;6.46;60.24
73594;BME280;64760;53.404;23.498;2024-01-30T06:36:02;101111.81;;;6.66;60.40
73594;BME280;64760;53.404;23.498;2024-01-30T06:38:29;101109.50;;;6.42;60.37
73594;BME280;64760;53.404;23.498;2024-01-30T06:40:55;101102.41;;;6.52;61.13
73594;BME280;64760;53.404;23.498;2024-01-30T06:43:22;101112.16;;;6.33;62.02
73594;BME280;64760;53.404;23.498;2024-01-30T06:45:48;101107.72;;;6.52;61.73
73594;BME280;64760;53.404;23.498;2024-01-30T06:48:14;101096.94;;;6.64;60.70
73594;BME280;64760;53.404;23.498;2024-01-30T06:50:40;101082.22;;;6.69;60.58
73594;BME280;64760;53.404;23.498;2024-01-30T06:53:06;101088.63;;;6.47;61.68
73594;BME280;64760;53.404;23.498;2024-01-30T06:55:33;101090.63;;;6.55;61.20
73594;BME280;64760;53.404;23.498;2024-01-30T06:57:59;101088.94;;;6.73;61.53
73594;BME280;64760;53.404;23.498;2024-01-30T07:00:25;101087.00;;;6.75;61.15
73594;BME280;64760;53.404;23.498;2024-01-30T07:02:51;101100.16;;;6.67;60.64
73594;BME280;64760;53.404;23.498;2024-01-30T07:05:17;101092.88;;;6.79;60.62
73594;BME280;64760;53.404;23.498;2024-01-30T07:07:44;101092.34;;;7.04;59.96
73594;BME280;64760;53.404;23.498;2024-01-30T07:10:10;101097.22;;;6.89;59.96
73594;BME280;64760;53.404;23.498;2024-01-30T07:12:37;101098.63;;;6.74;60.04
73594;BME280;64760;53.404;23.498;2024-01-30T07:15:05;101093.59;;;7.19;59.97
73594;BME280;64760;53.404;23.498;2024-01-30T07:17:35;101093.16;;;7.43;58.29
73594;BME280;64760;53.404;23.498;2024-01-30T07:20:01;101089.78;;;7.41;58.54
73594;BME280;64760;53.404;23.498;2024-01-30T07:22:29;101097.38;;;6.97;60.17
73594;BME280;64760;53.404;23.498;2024-01-30T07:24:56;101096.25;;;7.38;58.80
73594;BME280;64760;53.404;23.498;2024-01-30T07:27:24;101100.47;;;6.83;59.84
73594;BME280;64760;53.404;23.498;2024-01-30T07:29:50;101093.19;;;7.04;59.24
73594;BME280;64760;53.404;23.498;2024-01-30T07:32:17;101101.88;;;7.06;59.35
73594;BME280;64760;53.404;23.498;2024-01-30T07:34:44;101107.72;;;7.48;57.92
73594;BME280;64760;53.404;23.498;2024-01-30T07:37:11;101105.25;;;7.28;58.32
73594;BME280;64760;53.404;23.498;2024-01-30T07:39:41;101104.75;;;7.61;58.05
73594;BME280;64760;53.404;23.498;2024-01-30T07:42:08;101092.00;;;7.45;58.70
73594;BME280;64760;53.404;23.498;2024-01-30T07:44:35;101101.53;;;7.67;57.54
73594;BME280;64760;53.404;23.498;2024-01-30T07:47:01;101099.97;;;7.65;57.42
73594;BME280;64760;53.404;23.498;2024-01-30T07:49:28;101092.84;;;7.55;57.96
73594;BME280;64760;53.404;23.498;2024-01-30T07:51:55;101099.88;;;7.47;57.97
73594;BME280;64760;53.404;23.498;2024-01-30T07:54:21;101103.53;;;7.92;57.56
73594;BME280;64760;53.404;23.498;2024-01-30T07:56:47;101112.69;;;7.15;58.55
73594;BME280;64760;53.404;23.498;2024-01-30T07:59:13;101097.91;;;7.49;58.53
73594;BME280;64760;53.404;23.498;2024-01-30T08:01:39;101092.47;;;7.87;57.10
73594;BME280;64760;53.404;23.498;2024-01-30T08:04:06;101097.22;;;7.47;57.93
73594;BME280;64760;53.404;23.498;2024-01-30T08:06:32;101095.56;;;7.27;59.16
73594;BME280;64760;53.404;23.498;2024-01-30T08:08:59;101101.31;;;7.32;58.39
73594;BME280;64760;53.404;23.498;2024-01-30T08:11:25;101087.63;;;8.00;57.56
73594;BME280;64760;53.404;23.498;2024-01-30T08:13:53;101093.63;;;7.75;57.28
73594;BME280;64760;53.404;23.498;2024-01-30T08:16:19;101082.75;;;7.49;57.80
73594;BME280;64760;53.404;23.498;2024-01-30T08:18:45;101089.72;;;7.70;57.64
73594;BME280;64760;53.404;23.498;2024-01-30T08:21:12;101074.56;;;7.61;57.79
73594;BME280;64760;53.404;23.498;2024-01-30T08:23:39;101078.59;;;7.28;58.69
73594;BME280;64760;53.404;23.498;2024-01-30T08:26:06;101063.44;;;7.65;57.86
73594;BME280;64760;53.404;23.498;2024-01-30T08:28:32;101080.41;;;7.83;57.57
73594;BME280;64760;53.404;23.498;2024-01-30T08:30:59;101067.75;;;8.13;56.55
73594;BME280;64760;53.404;23.498;2024-01-30T08:33:25;101077.34;;;8.06;56.50
73594;BME280;64760;53.404;23.498;2024-01-30T08:35:52;101073.69;;;7.79;56.96
73594;BME280;64760;53.404;23.498;2024-01-30T08:38:18;101067.63;;;7.77;57.26
73594;BME280;64760;53.404;23.498;2024-01-30T08:40:45;101075.50;;;7.23;58.06
73594;BME280;64760;53.404;23.498;2024-01-30T08:43:11;101068.00;;;7.55;57.30
73594;BME280;64760;53.404;23.498;2024-01-30T08:45:39;101073.31;;;8.01;56.61
73594;BME280;64760;53.404;23.498;2024-01-30T08:48:05;101060.69;;;8.21;56.63
73594;BME280;64760;53.404;23.498;2024-01-30T08:50:32;101061.88;;;8.09;56.71
73594;BME280;64760;53.404;23.498;2024-01-30T08:52:58;101063.56;;;7.83;56.38
73594;BME280;64760;53.404;23.498;2024-01-30T08:55:25;101062.38;;;7.58;57.20
73594;BME280;64760;53.404;23.498;2024-01-30T08:57:51;101059.97;;;8.29;56.05
73594;BME280;64760;53.404;23.498;2024-01-30T09:00:18;101063.22;;;8.23;55.86
73594;BME280;64760;53.404;23.498;2024-01-30T09:02:45;101065.50;;;8.18;55.26
73594;BME280;64760;53.404;23.498;2024-01-30T09:05:14;101063.22;;;8.50;55.41
73594;BME280;64760;53.404;23.498;2024-01-30T09:07:40;101059.09;;;8.28;55.15
73594;BME280;64760;53.404;23.498;2024-01-30T09:10:08;101048.03;;;8.23;55.19
73594;BME280;64760;53.404;23.498;2024-01-30T09:12:34;101054.16;;;8.61;54.85
73594;BME280;64760;53.404;23.498;2024-01-30T09:15:01;101056.75;;;8.70;54.14
73594;BME280;64760;53.404;23.498;2024-01-30T09:17:27;101058.06;;;8.66;53.97
73594;BME280;64760;53.404;23.498;2024-01-30T09:19:54;101062.09;;;9.06;53.62
73594;BME280;64760;53.404;23.498;2024-01-30T09:22:20;101056.91;;;9.04;53.31
73594;BME280;64760;53.404;23.498;2024-01-30T09:24:47;101049.47;;;9.16;54.04
73594;BME280;64760;53.404;23.498;2024-01-30T09:27:13;101056.28;;;9.10;52.93
73594;BME280;64760;53.404;23.498;2024-01-30T09:29:40;101051.50;;;8.78;53.46
73594;BME280;64760;53.404;23.498;2024-01-30T09:32:06;101048.22;;;9.28;53.06
73594;BME280;64760;53.404;23.498;2024-01-30T09:34:33;101046.41;;;9.54;52.62
73594;BME280;64760;53.404;23.498;2024-01-30T09:36:59;101040.50;;;8.99;52.70
73594;BME280;64760;53.404;23.498;2024-01-30T09:39:26;101032.88;;;9.12;52.44
73594;BME280;64760;53.404;23.498;2024-01-30T09:44:43;101030.38;;;9.11;52.78
73594;BME280;64760;53.404;23.498;2024-01-30T09:47:10;101019.75;;;9.70;51.33
73594;BME280;64760;53.404;23.498;2024-01-30T09:49:36;101035.34;;;9.23;51.65
73594;BME280;64760;53.404;23.498;2024-01-30T09:52:05;101033.66;;;9.48;51.79
73594;BME280;64760;53.404;23.498;2024-01-30T09:54:33;101033.53;;;10.17;51.45
73594;BME280;64760;53.404;23.498;2024-01-30T09:56:59;101028.16;;;9.83;50.37
73594;BME280;64760;53.404;23.498;2024-01-30T09:59:26;101024.34;;;9.86;49.84
73594;BME280;64760;53.404;23.498;2024-01-30T10:01:52;101023.38;;;9.35;50.77
73594;BME280;64760;53.404;23.498;2024-01-30T10:04:19;101025.44;;;9.75;50.81
73594;BME280;64760;53.404;23.498;2024-01-30T10:06:46;101034.84;;;10.79;49.79
73594;BME280;64760;53.404;23.498;2024-01-30T10:09:12;101034.25;;;10.35;49.19
73594;BME280;64760;53.404;23.498;2024-01-30T10:11:39;101030.00;;;10.67;49.29
73594;BME280;64760;53.404;23.498;2024-01-30T10:14:05;101028.72;;;10.29;48.91
73594;BME280;64760;53.404;23.498;2024-01-30T10:16:32;101022.41;;;10.04;48.80
73594;BME280;64760;53.404;23.498;2024-01-30T10:18:58;101031.63;;;9.42;49.78
73594;BME280;64760;53.404;23.498;2024-01-30T10:21:24;101028.09;;;10.51;48.79
73594;BME280;64760;53.404;23.498;2024-01-30T10:23:52;101023.53;;;10.35;48.69
73594;BME280;64760;53.404;23.498;2024-01-30T10:26:18;101019.06;;;10.52;49.06
73594;BME280;64760;53.404;23.498;2024-01-30T10:28:45;101019.44;;;10.81;47.77
73594;BME280;64760;53.404;23.498;2024-01-30T10:31:16;101012.22;;;10.66;48.02
73594;BME280;64760;53.404;23.498;2024-01-30T10:33:43;101009.00;;;10.46;47.71
73594;BME280;64760;53.404;23.498;2024-01-30T10:36:13;101006.13;;;10.40;48.06
73594;BME280;64760;53.404;23.498;2024-01-30T10:38:42;101011.19;;;10.75;47.47
73594;BME280;64760;53.404;23.498;2024-01-30T10:41:10;101021.34;;;10.39;47.63
73594;BME280;64760;53.404;23.498;2024-01-30T10:43:41;101016.38;;;10.52;47.02
73594;BME280;64760;53.404;23.498;2024-01-30T10:46:18;101011.06;;;10.84;46.47
73594;BME280;64760;53.404;23.498;2024-01-30T10:48:51;101005.84;;;10.91;46.36
73594;BME280;64760;53.404;23.498;2024-01-30T10:51:22;101002.66;;;11.04;45.68
73594;BME280;64760;53.404;23.498;2024-01-30T10:53:50;101012.16;;;10.42;46.95
73594;BME280;64760;53.404;23.498;2024-01-30T10:56:18;101010.00;;;10.53;46.50
73594;BME280;64760;53.404;23.498;2024-01-30T10:58:50;101000.81;;;10.80;45.89
73594;BME280;64760;53.404;23.498;2024-01-30T11:01:22;100998.59;;;11.40;45.05
73594;BME280;64760;53.404;23.498;2024-01-30T11:03:52;100999.47;;;11.24;45.52
73594;BME280;64760;53.404;23.498;2024-01-30T11:06:22;100985.56;;;10.97;45.60
73594;BME280;64760;53.404;23.498;2024-01-30T11:09:05;100991.28;;;11.10;45.06
73594;BME280;64760;53.404;23.498;2024-01-30T11:11:55;100992.72;;;11.45;44.96
73594;BME280;64760;53.404;23.498;2024-01-30T11:14:24;100984.19;;;11.33;44.40
73594;BME280;64760;53.404;23.498;2024-01-30T11:16:52;100986.22;;;11.07;44.82
73594;BME280;64760;53.404;23.498;2024-01-30T11:19:23;100991.22;;;11.42;44.35
73594;BME280;64760;53.404;23.498;2024-01-30T11:21:54;100978.50;;;11.12;44.41
73594;BME280;64760;53.404;23.498;2024-01-30T11:24:20;100980.13;;;11.53;43.83
73594;BME280;64760;53.404;23.498;2024-01-30T11:26:49;100980.13;;;11.45;43.61
73594;BME280;64760;53.404;23.498;2024-01-30T11:29:17;100976.16;;;11.25;44.32
73594;BME280;64760;53.404;23.498;2024-01-30T11:31:54;100974.22;;;11.58;43.22
73594;BME280;64760;53.404;23.498;2024-01-30T11:34:21;100980.38;;;11.66;43.09
73594;BME280;64760;53.404;23.498;2024-01-30T11:36:59;100974.03;;;11.59;43.11
73594;BME280;64760;53.404;23.498;2024-01-30T11:39:26;100979.59;;;11.58;43.57
73594;BME280;64760;53.404;23.498;2024-01-30T11:41:53;100969.78;;;11.26;43.56
73594;BME280;64760;53.404;23.498;2024-01-30T11:44:23;100972.84;;;11.70;43.11
73594;BME280;64760;53.404;23.498;2024-01-30T11:46:50;100967.63;;;10.97;44.27
73594;BME280;64760;53.404;23.498;2024-01-30T11:49:20;100967.78;;;10.96;43.99
73594;BME280;64760;53.404;23.498;2024-01-30T11:51:46;100968.84;;;11.74;43.06
73594;BME280;64760;53.404;23.498;2024-01-30T11:54:17;100967.56;;;11.46;43.02
73594;BME280;64760;53.404;23.498;2024-01-30T11:56:44;100954.03;;;11.07;43.78
73594;BME280;64760;53.404;23.498;2024-01-30T11:59:10;100947.69;;;10.75;44.51
73594;BME280;64760;53.404;23.498;2024-01-30T12:01:36;100952.38;;;10.90;43.87
73594;BME280;64760;53.404;23.498;2024-01-30T12:04:03;100943.47;;;11.13;43.54
73594;BME280;64760;53.404;23.498;2024-01-30T12:06:29;100940.97;;;10.79;44.25
73594;BME280;64760;53.404;23.498;2024-01-30T12:08:59;100944.44;;;11.20;43.99
73594;BME280;64760;53.404;23.498;2024-01-30T12:11:27;100941.84;;;11.51;43.76
73594;BME280;64760;53.404;23.498;2024-01-30T12:13:56;100941.44;;;11.78;43.01
73594;BME280;64760;53.404;23.498;2024-01-30T12:16:23;100941.66;;;10.73;44.59
73594;BME280;64760;53.404;23.498;2024-01-30T12:18:49;100941.13;;;11.10;43.88
73594;BME280;64760;53.404;23.498;2024-01-30T12:21:25;100942.16;;;10.93;44.74
73594;BME280;64760;53.404;23.498;2024-01-30T12:23:51;100931.91;;;10.97;44.16
73594;BME280;64760;53.404;23.498;2024-01-30T12:26:18;100940.97;;;10.71;44.42
73594;BME280;64760;53.404;23.498;2024-01-30T12:28:48;100938.28;;;11.59;43.54
73594;BME280;64760;53.404;23.498;2024-01-30T12:31:15;100945.13;;;11.30;43.86
73594;BME280;64760;53.404;23.498;2024-01-30T12:33:41;100929.84;;;11.15;43.86
73594;BME280;64760;53.404;23.498;2024-01-30T12:36:08;100941.94;;;11.11;44.17
73594;BME280;64760;53.404;23.498;2024-01-30T12:38:34;100935.59;;;10.96;44.27
73594;BME280;64760;53.404;23.498;2024-01-30T12:41:01;100936.94;;;10.75;44.57
73594;BME280;64760;53.404;23.498;2024-01-30T12:43:28;100925.47;;;10.09;45.68
73594;BME280;64760;53.404;23.498;2024-01-30T12:45:55;100926.88;;;10.29;45.93
73594;BME280;64760;53.404;23.498;2024-01-30T12:48:21;100928.03;;;10.18;45.96
73594;BME280;64760;53.404;23.498;2024-01-30T12:50:48;100923.88;;;10.32;45.79